createdAt,value
2022-12-04T00:02:25.390Z,23.88
2022-12-04T00:04:52.104Z,23.38
2022-12-04T00:07:18.875Z,24.85
2022-12-04T00:09:45.579Z,22.23
2022-12-04T00:12:12.227Z,22.25
2022-12-04T00:15:00.716Z,21.22
2022-12-04T00:17:25.489Z,21.57
2022-12-04T00:19:52.287Z,21.26
2022-12-04T00:22:19.081Z,21.12
2022-12-04T00:24:45.728Z,20.69
2022-12-04T00:27:12.391Z,20.65
2022-12-04T00:29:39.024Z,19.86
2022-12-04T00:32:05.763Z,21.03
2022-12-04T00:34:32.461Z,20.69
2022-12-04T00:36:59.092Z,21.11
2022-12-04T00:39:25.798Z,21.15
2022-12-04T00:41:52.421Z,20.80
2022-12-04T00:44:19.072Z,20.81
2022-12-04T00:46:45.815Z,20.69
2022-12-04T00:49:12.435Z,20.84
2022-12-04T00:51:39.062Z,20.96
2022-12-04T00:54:05.688Z,21.61
2022-12-04T00:56:32.325Z,21.51
2022-12-04T00:58:59.442Z,22.39
2022-12-04T01:01:29.577Z,21.59
2022-12-04T01:03:56.298Z,21.33
2022-12-04T01:06:27.471Z,21.40
2022-12-04T01:08:54.460Z,21.41
2022-12-04T01:11:21.517Z,22.42
2022-12-04T01:13:48.189Z,22.65
2022-12-04T01:16:22.923Z,23.23
2022-12-04T01:18:49.862Z,22.35
2022-12-04T01:21:16.762Z,22.73
2022-12-04T01:23:43.396Z,22.29
2022-12-04T01:26:10.119Z,22.27
2022-12-04T01:28:36.769Z,22.80
2022-12-04T01:31:11.181Z,22.39
2022-12-04T01:33:37.994Z,21.72
2022-12-04T01:36:06.015Z,22.61
2022-12-04T01:38:33.225Z,22.35
2022-12-04T01:40:59.878Z,22.48
2022-12-04T01:43:26.547Z,21.87
2022-12-04T01:45:54.425Z,22.31
2022-12-04T01:48:53.287Z,22.62
2022-12-04T01:51:29.047Z,22.80
2022-12-04T01:54:09.033Z,22.43
2022-12-04T01:56:41.379Z,23.52
2022-12-04T01:59:08.393Z,23.51
2022-12-04T02:01:38.757Z,22.23
2022-12-04T02:04:05.415Z,22.52
2022-12-04T02:06:32.153Z,21.76
2022-12-04T02:08:58.828Z,23.26
2022-12-04T02:11:36.992Z,22.82
2022-12-04T02:14:18.745Z,23.34
2022-12-04T02:16:47.218Z,22.13
2022-12-04T02:19:19.413Z,23.09
2022-12-04T02:21:46.172Z,22.26
2022-12-04T02:24:50.577Z,22.32
2022-12-04T02:27:36.186Z,21.60
2022-12-04T02:30:04.947Z,21.48
2022-12-04T02:32:43.305Z,21.39
2022-12-04T02:35:14.459Z,21.64
2022-12-04T02:37:44.554Z,21.54
2022-12-04T02:40:19.966Z,21.77
2022-12-04T02:42:59.992Z,22.25
2022-12-04T02:45:29.857Z,21.82
2022-12-04T02:47:56.717Z,22.03
2022-12-04T02:50:23.394Z,21.70
2022-12-04T02:53:05.876Z,21.42
2022-12-04T02:55:35.818Z,21.34
2022-12-04T02:58:25.591Z,21.43
2022-12-04T03:00:52.512Z,21.80
2022-12-04T03:03:21.874Z,21.57
2022-12-04T03:05:54.315Z,22.05
2022-12-04T03:08:23.212Z,22.32
2022-12-04T03:10:52.042Z,22.13
2022-12-04T03:13:20.436Z,21.61
2022-12-04T03:15:48.565Z,22.69
2022-12-04T03:18:26.327Z,23.12
2022-12-04T03:20:55.581Z,22.65
2022-12-04T03:23:34.573Z,24.16
2022-12-04T03:26:15.120Z,23.47
2022-12-04T03:28:49.882Z,23.23
2022-12-04T03:31:16.613Z,23.86
2022-12-04T03:33:45.332Z,23.84
2022-12-04T03:36:27.365Z,23.14
2022-12-04T03:39:15.780Z,23.91
2022-12-04T03:42:05.252Z,23.42
2022-12-04T03:44:48.847Z,23.54
2022-12-04T03:47:20.920Z,22.42
2022-12-04T03:50:17.914Z,24.43
2022-12-04T03:52:58.370Z,24.52
2022-12-04T03:55:27.372Z,24.40
2022-12-04T03:57:57.127Z,23.71
2022-12-04T04:00:23.776Z,24.24
2022-12-04T04:02:52.338Z,23.59
2022-12-04T04:05:19.067Z,23.74
2022-12-04T04:07:54.685Z,23.38
2022-12-04T04:10:24.219Z,23.54
2022-12-04T04:13:00.781Z,23.21
2022-12-04T04:15:27.486Z,23.12
2022-12-04T04:17:54.211Z,23.45
2022-12-04T04:20:27.279Z,22.56
2022-12-04T04:22:56.350Z,23.65
2022-12-04T04:25:23.213Z,23.59
2022-12-04T04:27:57.358Z,22.95
2022-12-04T04:30:23.991Z,23.22
2022-12-04T04:32:56.205Z,23.93
2022-12-04T04:35:38.440Z,23.52
2022-12-04T04:38:25.173Z,23.61
2022-12-04T04:41:03.934Z,23.67
2022-12-04T04:43:50.720Z,23.59
2022-12-04T04:46:20.667Z,24.63
2022-12-04T04:48:55.138Z,23.52
2022-12-04T04:51:21.787Z,25.90
2022-12-04T04:53:51.929Z,25.79
2022-12-04T04:56:18.650Z,26.11
2022-12-04T04:58:45.453Z,25.91
2022-12-04T05:01:22.723Z,26.07
2022-12-04T05:03:49.477Z,24.69
2022-12-04T05:06:16.139Z,25.16
2022-12-04T05:08:42.783Z,24.69
2022-12-04T05:11:11.815Z,25.57
2022-12-04T05:13:38.534Z,26.65
2022-12-04T05:16:06.572Z,26.06
2022-12-04T05:18:33.784Z,25.48
2022-12-04T05:21:04.699Z,26.09
2022-12-04T05:23:31.319Z,25.18
2022-12-04T05:26:01.465Z,25.32
2022-12-04T05:28:28.107Z,25.75
2022-12-04T05:30:58.988Z,25.32
2022-12-04T05:33:25.679Z,25.29
2022-12-04T05:36:02.863Z,25.91
2022-12-04T05:38:29.504Z,25.45
2022-12-04T05:40:58.251Z,25.76
2022-12-04T05:43:24.892Z,25.46
2022-12-04T05:45:51.523Z,25.26
2022-12-04T05:48:18.195Z,26.26
2022-12-04T05:50:44.823Z,26.03
2022-12-04T05:53:11.442Z,25.65
2022-12-04T05:55:38.065Z,26.04
2022-12-04T05:58:04.924Z,26.15
2022-12-04T06:00:31.664Z,26.00
2022-12-04T06:02:58.355Z,26.00
2022-12-04T06:05:25.057Z,26.58
2022-12-04T06:07:51.717Z,26.48
2022-12-04T06:10:18.430Z,25.98
2022-12-04T06:12:45.059Z,26.18
2022-12-04T06:15:11.698Z,25.77
2022-12-04T06:17:38.324Z,26.02
2022-12-04T06:20:11.252Z,26.05
2022-12-04T06:22:38.464Z,25.41
2022-12-04T06:25:05.306Z,25.90
2022-12-04T06:27:31.954Z,26.46
2022-12-04T06:29:58.991Z,25.19
2022-12-04T06:32:25.843Z,25.39
2022-12-04T06:34:53.387Z,26.26
2022-12-04T06:37:20.865Z,26.22
2022-12-04T06:39:47.494Z,25.63
2022-12-04T06:42:14.130Z,25.69
2022-12-04T06:44:40.775Z,26.06
2022-12-04T06:47:08.054Z,26.26
2022-12-04T06:49:34.722Z,25.74
2022-12-04T06:52:01.356Z,25.76
2022-12-04T06:54:27.969Z,25.74
2022-12-04T06:56:54.701Z,26.75
2022-12-04T06:59:21.344Z,26.37
2022-12-04T07:01:48.026Z,26.08
2022-12-04T07:04:14.798Z,27.03
2022-12-04T07:06:41.532Z,26.42
2022-12-04T07:09:15.579Z,27.72
2022-12-04T07:11:42.298Z,27.06
2022-12-04T07:14:09.039Z,26.66
2022-12-04T07:16:40.719Z,26.75
2022-12-04T07:19:12.596Z,26.33
2022-12-04T07:21:39.236Z,27.87
2022-12-04T07:24:06.018Z,26.70
2022-12-04T07:26:32.674Z,27.53
2022-12-04T07:28:59.507Z,26.96
2022-12-04T07:31:26.789Z,27.51
2022-12-04T07:33:53.589Z,26.76
2022-12-04T07:36:20.299Z,28.11
2022-12-04T07:38:46.958Z,27.47
2022-12-04T07:41:13.605Z,27.06
2022-12-04T07:43:40.495Z,27.44
2022-12-04T07:46:14.576Z,27.17
2022-12-04T07:48:41.293Z,27.39
2022-12-04T07:51:12.412Z,28.71
2022-12-04T07:53:39.061Z,28.25
2022-12-04T07:56:06.057Z,28.06
2022-12-04T07:58:32.894Z,28.40
2022-12-04T08:01:09.298Z,28.26
2022-12-04T08:03:36.475Z,28.36
2022-12-04T08:06:03.634Z,27.53
2022-12-04T08:08:30.245Z,27.78
2022-12-04T08:10:57.516Z,28.28
2022-12-04T08:13:24.249Z,29.16
2022-12-04T08:15:50.921Z,29.91
2022-12-04T08:18:17.702Z,30.13
2022-12-04T08:20:44.375Z,29.07
2022-12-04T08:23:11.018Z,27.53
2022-12-04T08:25:41.045Z,28.58
2022-12-04T08:28:07.723Z,27.05
2022-12-04T08:30:35.085Z,28.71
2022-12-04T08:33:01.802Z,29.46
2022-12-04T08:35:28.479Z,29.93
2022-12-04T08:37:55.119Z,29.09
2022-12-04T08:40:21.778Z,31.04
2022-12-04T08:42:48.512Z,30.15
2022-12-04T08:45:15.144Z,29.09
2022-12-04T08:47:41.774Z,29.06
2022-12-04T08:50:08.580Z,29.70
2022-12-04T08:52:35.312Z,29.23
2022-12-04T08:55:01.996Z,30.03
2022-12-04T08:57:28.622Z,29.77
2022-12-04T08:59:55.512Z,29.10
2022-12-04T09:02:22.345Z,28.94
2022-12-04T09:04:49.056Z,29.70
2022-12-04T09:07:15.745Z,29.31
2022-12-04T09:09:47.897Z,29.25
2022-12-04T09:12:14.943Z,29.40
2022-12-04T09:14:41.557Z,28.85
2022-12-04T09:17:08.171Z,29.60
2022-12-04T09:19:34.789Z,29.82
2022-12-04T09:22:01.403Z,29.67
2022-12-04T09:24:29.975Z,31.16
2022-12-04T09:26:56.594Z,30.28
2022-12-04T09:29:23.257Z,29.37
2022-12-04T09:31:49.897Z,29.47
2022-12-04T09:34:16.516Z,29.54
2022-12-04T09:36:43.147Z,30.58
2022-12-04T09:39:09.764Z,31.12
2022-12-04T09:41:36.277Z,31.53
2022-12-04T09:44:03.752Z,29.38
2022-12-04T09:46:39.543Z,29.53
2022-12-04T09:49:28.057Z,29.25
2022-12-04T09:51:55.598Z,30.10
2022-12-04T09:54:24.052Z,30.76
2022-12-04T09:57:01.787Z,30.64
2022-12-04T09:59:29.884Z,31.38
2022-12-04T10:02:21.118Z,29.98
2022-12-04T10:04:47.876Z,29.98
2022-12-04T10:07:16.824Z,29.78
2022-12-04T10:10:20.866Z,31.72
2022-12-04T10:12:59.003Z,33.26
2022-12-04T10:15:40.926Z,31.68
2022-12-04T10:18:26.299Z,29.84
2022-12-04T10:21:35.044Z,29.40
2022-12-04T10:24:26.496Z,29.96
2022-12-04T10:26:53.117Z,29.82
2022-12-04T10:29:26.348Z,28.44
2022-12-04T10:31:54.356Z,28.41
2022-12-04T10:34:25.062Z,28.81
2022-12-04T10:36:53.307Z,28.13
2022-12-04T10:39:29.818Z,28.38
2022-12-04T10:42:14.396Z,27.49
2022-12-04T10:44:41.040Z,26.44
2022-12-04T10:47:09.086Z,26.53
2022-12-04T10:49:35.747Z,25.06
2022-12-04T10:52:02.389Z,25.23
2022-12-04T10:54:50.946Z,24.57
2022-12-04T10:57:17.592Z,25.08
2022-12-04T10:59:55.075Z,27.30
2022-12-04T11:02:29.297Z,26.55
2022-12-04T11:04:57.010Z,26.67
2022-12-04T11:07:32.163Z,25.25
2022-12-04T11:10:01.147Z,24.83
2022-12-04T11:12:27.785Z,24.84
2022-12-04T11:15:06.222Z,23.34
2022-12-04T11:17:32.854Z,25.12
2022-12-04T11:20:06.627Z,24.49
2022-12-04T11:22:33.262Z,23.66
2022-12-04T11:24:59.890Z,25.07
2022-12-04T11:27:32.743Z,25.05
2022-12-04T11:30:01.262Z,25.10
2022-12-04T11:32:29.961Z,25.00
2022-12-04T11:34:59.655Z,26.03
2022-12-04T11:37:30.683Z,25.73
2022-12-04T11:39:57.629Z,25.82
2022-12-04T11:42:26.113Z,25.82
2022-12-04T11:45:07.693Z,25.69
2022-12-04T11:47:34.328Z,25.70
2022-12-04T11:50:23.315Z,24.60
2022-12-04T11:53:17.550Z,24.78
2022-12-04T11:56:14.398Z,23.93
2022-12-04T11:59:18.000Z,24.87
2022-12-04T12:01:57.924Z,24.72
2022-12-04T12:04:43.138Z,25.08
2022-12-04T12:07:22.389Z,24.97
2022-12-04T12:09:58.703Z,24.98
2022-12-04T12:13:03.041Z,23.73
2022-12-04T12:16:07.277Z,24.18
2022-12-04T12:18:42.910Z,24.14
2022-12-04T12:21:32.889Z,25.32
2022-12-04T12:24:27.280Z,26.08
2022-12-04T12:26:59.861Z,26.70
2022-12-04T12:29:54.057Z,26.43
2022-12-04T12:32:33.063Z,27.71
2022-12-04T12:34:59.695Z,27.78
2022-12-04T12:37:31.047Z,26.52
2022-12-04T12:40:12.545Z,25.91
2022-12-04T12:42:43.905Z,26.33
2022-12-04T12:45:19.669Z,26.20
2022-12-04T12:47:46.864Z,27.00
2022-12-04T12:50:24.738Z,27.23
2022-12-04T12:53:03.224Z,28.15
2022-12-04T12:55:36.418Z,25.96
2022-12-04T12:58:18.144Z,26.45
2022-12-04T13:01:37.662Z,26.81
2022-12-04T13:04:11.661Z,26.45
2022-12-04T13:06:39.873Z,26.27
2022-12-04T13:09:30.287Z,26.49
2022-12-04T13:12:06.432Z,26.37
2022-12-04T13:14:33.654Z,26.15
2022-12-04T13:17:30.959Z,26.78
2022-12-04T13:19:57.986Z,25.84
2022-12-04T13:22:30.588Z,26.52
2022-12-04T13:25:03.112Z,27.89
2022-12-04T13:27:58.573Z,25.49
2022-12-04T13:30:45.001Z,25.73
2022-12-04T13:33:23.325Z,25.77
2022-12-04T13:36:28.903Z,25.44
2022-12-04T13:39:17.134Z,26.25
2022-12-04T13:41:43.788Z,24.95
2022-12-04T13:44:14.777Z,25.36
2022-12-04T13:46:53.917Z,25.45
2022-12-04T13:49:20.412Z,24.77
2022-12-04T13:51:48.018Z,25.33
2022-12-04T13:54:14.502Z,25.10
2022-12-04T13:56:48.549Z,25.90
2022-12-04T13:59:28.630Z,26.50
2022-12-04T14:01:57.212Z,25.92
2022-12-04T14:04:35.849Z,25.92
2022-12-04T14:07:03.084Z,26.68
2022-12-04T14:09:40.657Z,26.83
2022-12-04T14:12:10.052Z,27.35
2022-12-04T14:14:40.050Z,26.15
2022-12-04T14:17:14.531Z,26.77
2022-12-04T14:19:41.204Z,26.55
2022-12-04T14:22:31.962Z,26.44
2022-12-04T14:25:14.650Z,28.47
2022-12-04T14:27:41.127Z,29.48
2022-12-04T14:30:28.843Z,27.74
2022-12-04T14:33:31.001Z,26.46
2022-12-04T14:36:05.614Z,26.29
2022-12-04T14:38:32.252Z,25.29
2022-12-04T14:40:59.004Z,26.28
2022-12-04T14:43:33.329Z,26.00
2022-12-04T14:46:24.200Z,26.86
2022-12-04T14:49:05.780Z,26.76
2022-12-04T14:51:44.169Z,26.87
2022-12-04T14:54:38.985Z,26.94
2022-12-04T14:57:17.447Z,26.78
2022-12-04T14:59:47.245Z,26.35
2022-12-04T15:02:22.094Z,26.48
2022-12-04T15:04:49.273Z,26.35
2022-12-04T15:07:26.453Z,26.34
2022-12-04T15:09:54.733Z,26.41
2022-12-04T15:12:23.771Z,26.07
2022-12-04T15:14:50.420Z,26.15
2022-12-04T15:17:17.846Z,26.33
2022-12-04T15:19:44.518Z,25.92
2022-12-04T15:22:22.554Z,23.43
2022-12-04T15:24:50.093Z,22.38
2022-12-04T15:27:16.733Z,19.93
2022-12-04T15:29:43.362Z,20.62
2022-12-04T15:32:11.080Z,21.80
2022-12-04T15:34:40.685Z,20.17
2022-12-04T15:37:12.224Z,21.46
2022-12-04T15:39:38.957Z,21.90
2022-12-04T15:42:17.364Z,21.16
2022-12-04T15:45:03.542Z,21.83
2022-12-04T15:47:32.094Z,21.12
2022-12-04T15:50:09.020Z,20.63
2022-12-04T15:52:35.950Z,20.65
2022-12-04T15:55:06.269Z,21.96
2022-12-04T15:57:40.451Z,22.21
2022-12-04T16:00:22.289Z,23.22
2022-12-04T16:02:48.923Z,23.74
2022-12-04T16:05:21.404Z,23.71
2022-12-04T16:07:58.485Z,22.72
2022-12-04T16:10:34.937Z,22.64
2022-12-04T16:13:03.009Z,22.19
2022-12-04T16:15:38.373Z,21.99
2022-12-04T16:18:05.855Z,21.41
2022-12-04T16:20:34.433Z,21.07
2022-12-04T16:23:01.093Z,21.24
2022-12-04T16:25:27.973Z,20.77
2022-12-04T16:27:54.608Z,21.64
2022-12-04T16:30:21.298Z,22.25
2022-12-04T16:32:48.053Z,21.32
2022-12-04T16:35:16.677Z,21.05
2022-12-04T16:37:43.326Z,21.25
2022-12-04T16:40:11.762Z,21.18
2022-12-04T16:42:38.516Z,21.37
2022-12-04T16:45:20.156Z,21.07
2022-12-04T16:47:47.411Z,21.96
2022-12-04T16:50:14.139Z,22.31
2022-12-04T16:52:40.827Z,22.19
2022-12-04T16:55:18.466Z,22.00
2022-12-04T16:57:45.095Z,22.71
2022-12-04T17:00:15.354Z,22.66
2022-12-04T17:02:42.026Z,22.40
2022-12-04T17:05:19.664Z,22.07
2022-12-04T17:07:46.341Z,21.31
2022-12-04T17:10:13.232Z,21.80
2022-12-04T17:12:40.485Z,21.74
2022-12-04T17:15:07.545Z,25.05
2022-12-04T17:17:34.182Z,23.81
2022-12-04T17:20:00.811Z,22.62
2022-12-04T17:22:27.536Z,21.78
2022-12-04T17:24:56.247Z,21.68
2022-12-04T17:27:23.278Z,21.59
2022-12-04T17:29:49.907Z,21.53
2022-12-04T17:32:16.536Z,22.36
2022-12-04T17:34:43.173Z,21.57
2022-12-04T17:37:09.897Z,21.50
2022-12-04T17:39:36.511Z,22.11
2022-12-04T17:42:03.142Z,21.86
2022-12-04T17:44:29.798Z,22.14
2022-12-04T17:46:56.507Z,21.74
2022-12-04T17:49:23.199Z,22.81
2022-12-04T17:51:49.844Z,23.99
2022-12-04T17:54:16.469Z,25.97
2022-12-04T17:56:47.756Z,26.58
2022-12-04T17:59:16.190Z,26.09
2022-12-04T18:01:43.090Z,26.49
2022-12-04T18:04:09.746Z,24.74
2022-12-04T18:06:37.929Z,26.39
2022-12-04T18:09:05.350Z,26.73
2022-12-04T18:11:33.023Z,27.43
2022-12-04T18:14:12.339Z,26.39
2022-12-04T18:16:49.596Z,26.53
2022-12-04T18:19:16.471Z,26.19
2022-12-04T18:21:43.187Z,26.18
2022-12-04T18:24:09.835Z,25.81
2022-12-04T18:26:39.800Z,25.44
2022-12-04T18:29:06.438Z,26.29
2022-12-04T18:31:33.216Z,25.79
2022-12-04T18:33:59.918Z,25.64
2022-12-04T18:36:31.554Z,26.54
2022-12-04T18:39:00.441Z,26.74
2022-12-04T18:41:27.565Z,26.15
2022-12-04T18:43:54.270Z,26.01
2022-12-04T18:46:21.095Z,26.12
2022-12-04T18:48:48.150Z,26.09
2022-12-04T18:51:34.944Z,25.45
2022-12-04T18:54:06.858Z,25.43
2022-12-04T18:56:34.016Z,25.81
2022-12-04T18:59:08.621Z,25.97
2022-12-04T19:01:35.299Z,26.89
2022-12-04T19:04:03.805Z,26.33
2022-12-04T19:06:32.204Z,26.52
2022-12-04T19:09:00.217Z,26.72
2022-12-04T19:11:26.921Z,25.06
2022-12-04T19:13:54.476Z,24.36
2022-12-04T19:16:21.237Z,24.49
2022-12-04T19:18:47.942Z,25.27
2022-12-04T19:21:14.597Z,24.65
2022-12-04T19:23:41.628Z,24.45
2022-12-04T19:26:08.265Z,25.44
2022-12-04T19:28:35.238Z,25.22
2022-12-04T19:31:01.916Z,24.82
2022-12-04T19:33:28.556Z,23.95
2022-12-04T19:35:58.729Z,25.74
2022-12-04T19:38:25.631Z,24.99
2022-12-04T19:41:05.745Z,24.05
2022-12-04T19:43:32.405Z,23.76
2022-12-04T19:45:59.873Z,23.81
2022-12-04T19:48:26.803Z,23.64
2022-12-04T19:50:53.435Z,23.95
2022-12-04T19:53:20.071Z,24.38
2022-12-04T19:55:46.727Z,23.14
2022-12-04T19:58:13.468Z,23.30
2022-12-04T20:00:40.138Z,24.22
2022-12-04T20:03:06.759Z,24.33
2022-12-04T20:05:36.152Z,25.21
2022-12-04T20:10:28.285Z,24.98
2022-12-04T20:12:54.929Z,25.19
2022-12-04T20:15:21.586Z,24.93
2022-12-04T20:17:48.254Z,25.41
2022-12-04T20:20:14.878Z,23.77
2022-12-04T20:22:41.534Z,24.87
2022-12-04T20:25:08.404Z,25.25
2022-12-04T20:27:35.074Z,27.09
2022-12-04T20:30:01.720Z,27.30
2022-12-04T20:32:28.356Z,26.05
2022-12-04T20:34:55.039Z,27.32
2022-12-04T20:37:21.733Z,27.41
2022-12-04T20:39:48.398Z,27.03
2022-12-04T20:42:15.041Z,26.61
2022-12-04T20:44:41.676Z,26.29
2022-12-04T20:47:08.348Z,25.96
2022-12-04T20:49:35.039Z,25.50
2022-12-04T20:52:01.667Z,25.67
2022-12-04T20:54:28.798Z,24.77
2022-12-04T20:56:55.663Z,25.29
2022-12-04T20:59:22.724Z,26.03
2022-12-04T21:01:49.465Z,26.45
2022-12-04T21:04:16.298Z,27.98
2022-12-04T21:06:42.977Z,42.06
2022-12-04T21:09:14.827Z,35.50
2022-12-04T21:11:43.428Z,34.71
2022-12-04T21:14:18.196Z,33.38
2022-12-04T21:16:45.185Z,27.25
2022-12-04T21:19:13.523Z,26.62
2022-12-04T21:21:40.466Z,25.40
2022-12-04T21:24:08.115Z,25.65
2022-12-04T21:26:34.842Z,25.40
2022-12-04T21:29:01.694Z,25.22
2022-12-04T21:31:28.529Z,24.41
2022-12-04T21:33:55.899Z,25.04
2022-12-04T21:36:22.550Z,25.97
2022-12-04T21:38:49.236Z,25.03
2022-12-04T21:41:15.912Z,25.14
2022-12-04T21:43:42.544Z,25.39
2022-12-04T21:46:09.735Z,25.53
2022-12-04T21:48:36.679Z,24.80
2022-12-04T21:51:13.275Z,25.19
2022-12-04T21:53:53.787Z,25.41
2022-12-04T21:56:23.883Z,24.56
2022-12-04T21:58:50.836Z,23.35
2022-12-04T22:01:17.884Z,23.46
2022-12-04T22:03:44.598Z,21.12
2022-12-04T22:06:11.259Z,16.60
2022-12-04T22:08:38.854Z,16.22
2022-12-04T22:11:06.472Z,15.58
2022-12-04T22:13:33.419Z,13.90
2022-12-04T22:16:04.131Z,10.16
2022-12-04T22:18:30.798Z,8.11
2022-12-04T22:20:57.471Z,7.42
2022-12-04T22:23:24.108Z,8.12
2022-12-04T22:25:50.733Z,7.07
2022-12-04T22:28:17.440Z,6.19
2022-12-04T22:30:44.086Z,6.10
2022-12-04T22:33:10.800Z,6.09
2022-12-04T22:35:37.509Z,6.12
2022-12-04T22:38:04.128Z,6.09
2022-12-04T22:40:30.754Z,6.21
2022-12-04T22:42:57.430Z,6.00
2022-12-04T22:45:24.118Z,6.06
2022-12-04T22:47:50.780Z,6.45
2022-12-04T22:50:17.562Z,6.14
2022-12-04T22:52:44.235Z,5.72
2022-12-04T22:55:10.870Z,6.32
2022-12-04T22:57:37.504Z,5.95
2022-12-04T23:00:04.470Z,5.86
2022-12-04T23:02:32.480Z,5.41
2022-12-04T23:04:59.195Z,5.59
2022-12-04T23:07:25.849Z,5.39
2022-12-04T23:09:52.487Z,5.44
2022-12-04T23:12:19.116Z,5.69
2022-12-04T23:14:45.743Z,5.87
2022-12-04T23:17:12.377Z,6.45
2022-12-04T23:19:39.144Z,6.43
2022-12-04T23:22:05.776Z,6.12
2022-12-04T23:24:32.404Z,6.19
2022-12-04T23:26:59.072Z,6.33
2022-12-04T23:32:12.379Z,6.89
2022-12-04T23:34:39.011Z,6.45
2022-12-04T23:37:05.632Z,6.55
2022-12-04T23:39:32.245Z,6.34
2022-12-04T23:41:58.872Z,6.05
2022-12-04T23:44:25.499Z,6.58
2022-12-04T23:46:52.270Z,5.75
2022-12-04T23:49:18.927Z,5.72
2022-12-04T23:51:45.643Z,5.87
2022-12-04T23:54:12.258Z,5.90
2022-12-04T23:56:38.881Z,5.91
2022-12-04T23:59:05.509Z,6.32
